Castle Point, NY (12511)

12:08 PM EST on February 11, 2016 (GMT -0500)
Davis Street | | Change Station
CLOSE
Current Station
Personal Weather Station
Location: Beacon, NY
Elevation: 180 ft
Nearby Weather Stations

Elev 180 ft 41.50 °N, 73.96 °W | Updated 3 minutes ago

Overcast
Overcast
25.5 °F
Feels Like 19 °F
N
5.8
Wind Variable Wind from WNW

Today
High -- | Low -- °F
--% Chance of Precip.
Yesterday
High -- | Low -- °F
Precip. -- in
Pressure 29.86 in
Visibility 15.0 miles
Clouds Mostly Cloudy 5000 ft
Windchill 19 °F
Dew Point 0 °F
Humidity 33%
Rainfall 0.00 in
Snow Depth Not available.
6:56 AM 5:23 PM
Waxing Crescent, 13% visible
METAR KSWF 111645Z 30020G30KT 15SM BKN050 M06/M15 A2986
Pressure 29.86 in
Visibility 15.0 miles
Clouds Mostly Cloudy 5000 ft
Windchill 19 °F
Dew Point 0 °F
Humidity 33%
Rainfall 0.00 in
Snow Depth Not available.
6:56 AM 5:23 PM
Waxing Crescent, 13% visible
METAR KSWF 111645Z 30020G30KT 15SM BKN050 M06/M15 A2986

10-Day Weather Forecast

Almanac

Astronomy

Feb. 11, 2016 Rise Set
Actual Time
Civil Twilight
Nautical Twilight
Astronomical Twilight
Moon
Length of Visible Light
Length of Day
Tomorrow will be .
, % of the Moon is Illuminated

Today's Extremes

State Highs State Lows

Community

WunderPhotos

Upload Photos

1,892,102 photos uploaded!

WunderBlog® & News

Nearby

Air Quality

  Air Quality AQ Index Pollutant
Not available.

Snow Depth

Station Depth Elevation

Earthquake Activity

City Distance Mag. Time & Date
Minimum magnitude displayed is 2.5.

Coastal Water Temperatures

Place Temperature

Stations

Nearby Weather Stations

Station Location Temp. Windchill Dew Point Humidity Wind Precip. Elev Updated Type
                   

Watches & Warnings

There are currently no watches in effect.